createdAt,value
2019-01-26T00:01:18.496Z,8.50
2019-01-26T00:03:47.112Z,9.13
2019-01-26T00:06:15.640Z,8.73
2019-01-26T00:08:47.401Z,8.07
2019-01-26T00:11:15.884Z,7.50
2019-01-26T00:13:44.454Z,7.87
2019-01-26T00:16:12.955Z,7.40
2019-01-26T00:18:41.429Z,7.27
2019-01-26T00:21:09.881Z,7.60
2019-01-26T00:23:38.502Z,6.87
2019-01-26T00:26:06.943Z,6.70
2019-01-26T00:28:35.450Z,6.97
2019-01-26T00:31:04.033Z,6.60
2019-01-26T00:33:32.488Z,7.00
2019-01-26T00:36:01.016Z,6.30
2019-01-26T00:38:29.456Z,6.73
2019-01-26T00:40:57.869Z,6.87
2019-01-26T00:43:26.332Z,6.57
2019-01-26T00:45:54.759Z,7.00
2019-01-26T00:48:23.336Z,6.20
2019-01-26T00:50:51.750Z,6.23
2019-01-26T00:53:20.260Z,6.50
2019-01-26T00:55:48.769Z,6.13
2019-01-26T00:58:17.261Z,7.10
2019-01-26T01:00:45.696Z,6.70
2019-01-26T01:03:14.280Z,6.90
2019-01-26T01:05:42.716Z,6.73
2019-01-26T01:08:11.207Z,6.50
2019-01-26T01:10:39.767Z,6.37
2019-01-26T01:13:08.184Z,6.40
2019-01-26T01:15:36.617Z,5.53
2019-01-26T01:18:05.099Z,5.57
2019-01-26T01:20:33.543Z,5.40
2019-01-26T01:23:01.982Z,4.73
2019-01-26T01:25:30.420Z,4.70
2019-01-26T01:27:58.832Z,4.73
2019-01-26T01:30:27.345Z,4.50
2019-01-26T01:32:55.782Z,4.50
2019-01-26T01:35:24.291Z,5.47
2019-01-26T01:37:52.782Z,4.83
2019-01-26T01:40:21.462Z,4.60
2019-01-26T01:42:49.895Z,5.23
2019-01-26T01:45:23.310Z,4.93
2019-01-26T01:47:51.729Z,4.60
2019-01-26T01:50:20.312Z,4.90
2019-01-26T01:52:48.819Z,5.10
2019-01-26T01:55:17.433Z,5.70
2019-01-26T01:57:46.063Z,5.37
2019-01-26T02:00:17.313Z,5.03
2019-01-26T02:02:45.770Z,5.10
2019-01-26T02:05:14.297Z,4.70
2019-01-26T02:07:42.771Z,5.70
2019-01-26T02:10:14.573Z,5.23
2019-01-26T02:12:42.990Z,5.43
2019-01-26T02:15:12.574Z,5.30
2019-01-26T02:17:40.982Z,5.57
2019-01-26T02:20:15.556Z,5.93
2019-01-26T02:22:44.041Z,6.23
2019-01-26T02:25:13.120Z,6.07
2019-01-26T02:27:41.619Z,6.43
2019-01-26T02:30:13.316Z,6.87
2019-01-26T02:32:41.730Z,7.90
2019-01-26T02:35:10.299Z,7.33
2019-01-26T02:37:38.727Z,8.03
2019-01-26T02:40:10.202Z,7.33
2019-01-26T02:42:38.901Z,8.07
2019-01-26T02:45:09.872Z,8.30
2019-01-26T02:47:38.454Z,9.03
2019-01-26T02:50:10.120Z,8.90
2019-01-26T02:52:38.599Z,8.90
2019-01-26T02:55:07.378Z,9.80
2019-01-26T02:57:35.822Z,9.43
2019-01-26T03:00:07.305Z,8.90
2019-01-26T03:02:35.746Z,8.93
2019-01-26T03:05:06.915Z,9.23
2019-01-26T03:07:35.341Z,9.33
2019-01-26T03:10:04.934Z,9.77
2019-01-26T03:12:33.374Z,9.10
2019-01-26T03:15:01.787Z,9.73
2019-01-26T03:17:30.233Z,9.73
2019-01-26T03:19:58.660Z,9.77
2019-01-26T03:22:27.155Z,9.63
2019-01-26T03:24:55.565Z,8.63
2019-01-26T03:27:24.003Z,9.20
2019-01-26T03:29:52.425Z,9.37
2019-01-26T03:32:20.900Z,9.30
2019-01-26T03:34:49.380Z,8.43
2019-01-26T03:37:17.846Z,8.93
2019-01-26T03:39:46.329Z,9.37
2019-01-26T03:42:14.751Z,8.77
2019-01-26T03:44:43.173Z,9.53
2019-01-26T03:47:13.741Z,9.63
2019-01-26T03:49:41.747Z,8.73
2019-01-26T03:52:10.220Z,8.10
2019-01-26T03:54:38.628Z,8.53
2019-01-26T03:57:07.148Z,9.40
2019-01-26T03:59:35.619Z,8.33
2019-01-26T04:02:04.231Z,8.67
2019-01-26T04:04:32.716Z,8.70
2019-01-26T04:07:01.166Z,8.27
2019-01-26T04:09:29.716Z,7.50
2019-01-26T04:11:58.097Z,8.07
2019-01-26T04:14:26.510Z,7.93
2019-01-26T04:16:55.010Z,8.37
2019-01-26T04:19:23.429Z,7.20
2019-01-26T04:21:51.859Z,7.30
2019-01-26T04:24:20.342Z,6.90
2019-01-26T04:26:48.799Z,8.07
2019-01-26T04:29:17.218Z,7.53
2019-01-26T04:31:45.664Z,6.83
2019-01-26T04:34:14.079Z,7.23
2019-01-26T04:36:42.562Z,7.00
2019-01-26T04:39:10.945Z,7.30
2019-01-26T04:41:39.420Z,6.87
2019-01-26T04:44:07.864Z,7.00
2019-01-26T04:46:36.289Z,7.03
2019-01-26T04:49:04.864Z,7.10
2019-01-26T04:51:33.279Z,6.77
2019-01-26T04:54:01.700Z,6.80
2019-01-26T04:56:30.145Z,6.47
2019-01-26T04:58:58.592Z,6.57
2019-01-26T05:01:27.014Z,6.47
2019-01-26T05:03:55.450Z,5.93
2019-01-26T05:06:23.873Z,6.30
2019-01-26T05:08:52.301Z,5.80
2019-01-26T05:11:20.774Z,5.70
2019-01-26T05:13:49.174Z,5.60
2019-01-26T05:16:17.595Z,5.57
2019-01-26T05:18:46.038Z,5.23
2019-01-26T05:21:14.444Z,4.90
2019-01-26T05:23:42.906Z,4.90
2019-01-26T05:26:11.316Z,5.20
2019-01-26T05:28:39.755Z,5.03
2019-01-26T05:31:08.246Z,5.00
2019-01-26T05:33:36.699Z,4.63
2019-01-26T05:36:05.277Z,5.40
2019-01-26T05:38:33.736Z,4.70
2019-01-26T05:41:02.158Z,4.47
2019-01-26T05:43:30.618Z,4.70
2019-01-26T05:45:59.109Z,3.80
2019-01-26T05:48:27.583Z,3.87
2019-01-26T05:50:56.102Z,4.00
2019-01-26T05:53:24.543Z,3.70
2019-01-26T05:55:52.970Z,4.70
2019-01-26T05:58:21.420Z,4.53
2019-01-26T06:00:49.845Z,3.50
2019-01-26T06:03:18.307Z,3.20
2019-01-26T06:05:46.738Z,3.70
2019-01-26T06:08:15.186Z,3.03
2019-01-26T06:10:43.597Z,3.70
2019-01-26T06:13:12.045Z,3.30
2019-01-26T06:15:40.474Z,3.80
2019-01-26T06:18:08.985Z,3.47
2019-01-26T06:20:37.411Z,3.33
2019-01-26T06:23:05.830Z,3.53
2019-01-26T06:25:34.263Z,3.83
2019-01-26T06:28:02.714Z,3.97
2019-01-26T06:30:31.166Z,4.47
2019-01-26T06:32:59.681Z,4.40
2019-01-26T06:35:28.125Z,4.43
2019-01-26T06:37:56.549Z,4.20
2019-01-26T06:40:25.061Z,5.23
2019-01-26T06:42:53.646Z,4.90
2019-01-26T06:45:22.380Z,4.60
2019-01-26T06:47:50.876Z,4.43
2019-01-26T06:50:23.750Z,4.93
2019-01-26T06:52:52.469Z,4.60
2019-01-26T06:55:21.232Z,4.40
2019-01-26T06:57:49.713Z,4.70
2019-01-26T07:00:21.065Z,4.73
2019-01-26T07:02:49.554Z,5.10
2019-01-26T07:05:20.086Z,4.90
2019-01-26T07:07:48.543Z,4.33
2019-01-26T07:10:17.023Z,4.00
2019-01-26T07:12:45.452Z,3.87
2019-01-26T07:15:15.516Z,3.40
2019-01-26T07:17:44.000Z,3.50
2019-01-26T07:20:15.224Z,3.63
2019-01-26T07:22:43.645Z,2.93
2019-01-26T07:25:12.372Z,3.27
2019-01-26T07:27:40.854Z,3.40
2019-01-26T07:30:21.353Z,3.20
2019-01-26T07:32:49.838Z,2.83
2019-01-26T07:35:18.272Z,3.03
2019-01-26T07:37:46.691Z,2.70
2019-01-26T07:40:20.939Z,3.17
2019-01-26T07:42:49.616Z,3.67
2019-01-26T07:45:18.488Z,3.03
2019-01-26T07:47:46.979Z,3.60
2019-01-26T07:50:21.527Z,3.20
2019-01-26T07:52:50.115Z,3.70
2019-01-26T07:55:18.973Z,3.30
2019-01-26T07:57:47.403Z,4.17
2019-01-26T08:00:21.589Z,3.73
2019-01-26T08:02:50.019Z,3.77
2019-01-26T08:05:19.103Z,4.53
2019-01-26T08:07:47.685Z,6.47
2019-01-26T08:10:21.755Z,4.63
2019-01-26T08:12:50.628Z,4.20
2019-01-26T08:15:24.644Z,3.60
2019-01-26T08:17:53.143Z,3.60
2019-01-26T08:20:22.382Z,3.47
2019-01-26T08:22:51.042Z,3.33
2019-01-26T08:25:19.485Z,4.10
2019-01-26T08:27:48.778Z,3.30
2019-01-26T08:30:24.387Z,3.70
2019-01-26T08:32:53.446Z,3.63
2019-01-26T08:35:22.147Z,3.50
2019-01-26T08:37:50.729Z,3.73
2019-01-26T08:40:21.298Z,3.87
2019-01-26T08:42:50.658Z,3.80
2019-01-26T08:45:19.330Z,4.03
2019-01-26T08:47:48.401Z,4.20
2019-01-26T08:50:19.511Z,4.03
2019-01-26T08:52:48.004Z,3.80
2019-01-26T08:55:18.272Z,4.20
2019-01-26T08:57:47.038Z,4.33
2019-01-26T09:00:18.674Z,4.43
2019-01-26T09:02:55.742Z,4.37
2019-01-26T09:05:26.136Z,4.57
2019-01-26T09:07:54.588Z,5.10
2019-01-26T09:10:23.097Z,4.80
2019-01-26T09:12:51.531Z,4.33
2019-01-26T09:15:20.329Z,4.93
2019-01-26T09:17:48.832Z,4.70
2019-01-26T09:20:18.411Z,4.70
2019-01-26T09:22:46.846Z,4.60
2019-01-26T09:25:15.406Z,4.30
2019-01-26T09:27:44.191Z,4.10
2019-01-26T09:30:15.675Z,4.93
2019-01-26T09:32:44.176Z,4.40
2019-01-26T09:35:12.912Z,4.50
2019-01-26T09:37:41.347Z,4.70
2019-01-26T09:40:18.529Z,4.80
2019-01-26T09:42:46.954Z,5.13
2019-01-26T09:45:17.394Z,5.13
2019-01-26T09:47:46.162Z,5.20
2019-01-26T09:50:15.555Z,5.40
2019-01-26T09:52:43.967Z,5.43
2019-01-26T09:55:14.832Z,4.83
2019-01-26T09:57:43.289Z,5.13
2019-01-26T10:00:26.164Z,5.07
2019-01-26T10:02:54.680Z,4.83
2019-01-26T10:05:23.170Z,5.20
2019-01-26T10:07:51.811Z,4.67
2019-01-26T10:10:21.362Z,4.60
2019-01-26T10:12:50.092Z,4.70
2019-01-26T10:15:23.546Z,5.13
2019-01-26T10:17:52.032Z,4.43
2019-01-26T10:20:29.488Z,4.83
2019-01-26T10:22:57.909Z,4.33
2019-01-26T10:25:26.548Z,4.87
2019-01-26T10:27:54.985Z,5.00
2019-01-26T10:30:36.836Z,4.40
2019-01-26T10:33:05.403Z,5.20
2019-01-26T10:35:51.455Z,4.97
2019-01-26T10:38:20.118Z,5.20
2019-01-26T10:40:53.010Z,5.33
2019-01-26T10:43:23.170Z,5.00
2019-01-26T10:45:51.592Z,4.97
2019-01-26T10:48:20.092Z,4.97
2019-01-26T10:50:48.523Z,5.47
2019-01-26T10:53:16.964Z,5.00
2019-01-26T10:55:45.461Z,5.67
2019-01-26T10:58:13.900Z,5.80
2019-01-26T11:00:42.348Z,5.77
2019-01-26T11:03:10.861Z,5.80
2019-01-26T11:05:39.362Z,5.93
2019-01-26T11:08:07.778Z,5.80
2019-01-26T11:10:36.205Z,5.67
2019-01-26T11:13:04.705Z,6.20
2019-01-26T11:15:33.225Z,6.20
2019-01-26T11:18:01.805Z,5.93
2019-01-26T11:20:30.549Z,6.23
2019-01-26T11:22:59.000Z,6.00
2019-01-26T11:25:27.415Z,6.33
2019-01-26T11:27:55.869Z,6.20
2019-01-26T11:30:26.090Z,6.60
2019-01-26T11:32:54.538Z,5.93
2019-01-26T11:35:24.905Z,5.87
2019-01-26T11:37:53.479Z,5.90
2019-01-26T11:40:23.635Z,5.97
2019-01-26T11:42:52.479Z,6.60
2019-01-26T11:45:39.027Z,5.70
2019-01-26T11:48:21.282Z,5.87
2019-01-26T11:50:51.463Z,5.47
2019-01-26T11:53:19.919Z,5.27
2019-01-26T11:55:49.985Z,5.70
2019-01-26T11:58:18.475Z,5.57
2019-01-26T12:00:59.539Z,5.60
2019-01-26T12:03:31.825Z,5.73
2019-01-26T12:06:04.314Z,5.60
2019-01-26T12:08:32.830Z,6.13
2019-01-26T12:11:01.259Z,5.50
2019-01-26T12:13:29.701Z,5.50
2019-01-26T12:15:58.134Z,5.40
2019-01-26T12:18:26.678Z,5.47
2019-01-26T12:20:55.126Z,5.70
2019-01-26T12:23:23.687Z,5.30
2019-01-26T12:25:52.127Z,5.67
2019-01-26T12:28:20.555Z,5.03
2019-01-26T12:30:49.080Z,5.40
2019-01-26T12:33:17.526Z,5.07
2019-01-26T12:35:46.000Z,5.33
2019-01-26T12:38:14.556Z,5.00
2019-01-26T12:40:43.044Z,5.27
2019-01-26T12:43:11.597Z,5.13
2019-01-26T12:45:40.108Z,5.10
2019-01-26T12:48:08.685Z,5.73
2019-01-26T12:50:37.143Z,5.07
2019-01-26T12:53:06.023Z,5.13
2019-01-26T12:55:34.650Z,4.40
2019-01-26T12:58:03.079Z,4.73
2019-01-26T13:00:31.580Z,4.43
2019-01-26T13:03:00.032Z,3.93
2019-01-26T13:05:28.591Z,4.50
2019-01-26T13:07:57.025Z,4.00
2019-01-26T13:10:28.505Z,3.80
2019-01-26T13:12:57.080Z,3.63
2019-01-26T13:15:25.590Z,3.30
2019-01-26T13:17:54.161Z,3.50
2019-01-26T13:20:22.792Z,3.37
2019-01-26T13:22:51.442Z,3.50
2019-01-26T13:25:20.220Z,3.20
2019-01-26T13:27:48.745Z,3.80
2019-01-26T13:30:22.671Z,3.40
2019-01-26T13:32:51.224Z,3.40
2019-01-26T13:35:19.882Z,3.60
2019-01-26T13:37:48.566Z,3.90
2019-01-26T13:40:19.984Z,3.70
2019-01-26T13:42:48.488Z,3.50
2019-01-26T13:45:17.446Z,3.87
2019-01-26T13:47:45.890Z,3.93
2019-01-26T13:50:14.666Z,3.70
2019-01-26T13:52:43.208Z,3.53
2019-01-26T13:55:17.423Z,3.87
2019-01-26T13:57:45.866Z,3.60
2019-01-26T14:00:23.051Z,3.83
2019-01-26T14:02:51.553Z,3.70
2019-01-26T14:05:20.146Z,4.00
2019-01-26T14:07:48.647Z,3.70
2019-01-26T14:10:20.421Z,3.80
2019-01-26T14:12:49.314Z,3.43
2019-01-26T14:15:19.591Z,3.77
2019-01-26T14:17:48.170Z,3.77
2019-01-26T14:20:19.476Z,3.17
2019-01-26T14:22:47.978Z,3.93
2019-01-26T14:25:17.769Z,3.47
2019-01-26T14:27:46.329Z,3.83
2019-01-26T14:30:21.129Z,4.00
2019-01-26T14:32:52.672Z,3.83
2019-01-26T14:35:20.138Z,5.00
2019-01-26T14:37:48.648Z,5.00
2019-01-26T14:40:17.896Z,5.50
2019-01-26T14:42:46.342Z,5.73
2019-01-26T14:45:16.796Z,5.67
2019-01-26T14:47:45.397Z,6.00
2019-01-26T14:50:16.160Z,6.23
2019-01-26T14:52:44.947Z,6.40
2019-01-26T14:55:16.311Z,7.23
2019-01-26T14:57:44.773Z,7.57
2019-01-26T15:00:31.379Z,7.60
2019-01-26T15:02:59.896Z,6.60
2019-01-26T15:05:28.798Z,8.13
2019-01-26T15:07:59.169Z,7.73
2019-01-26T15:10:27.849Z,8.00
2019-01-26T15:12:56.315Z,8.90
2019-01-26T15:15:24.882Z,8.30
2019-01-26T15:17:53.333Z,8.40
2019-01-26T15:20:30.749Z,8.80
2019-01-26T15:22:59.314Z,10.03
2019-01-26T15:25:27.895Z,8.90
2019-01-26T15:27:56.394Z,9.57
2019-01-26T15:30:33.969Z,9.40
2019-01-26T15:33:02.553Z,9.10
2019-01-26T15:35:31.053Z,8.90
2019-01-26T15:37:59.496Z,9.57
2019-01-26T15:40:27.928Z,8.20
2019-01-26T15:42:56.390Z,8.70
2019-01-26T15:45:27.856Z,8.83
2019-01-26T15:47:57.110Z,8.97
2019-01-26T15:50:25.536Z,9.70
2019-01-26T15:52:53.950Z,9.00
2019-01-26T15:55:24.838Z,9.60
2019-01-26T15:57:53.609Z,9.83
2019-01-26T16:00:41.878Z,9.85
2019-01-26T16:03:10.438Z,8.60
2019-01-26T16:05:38.941Z,8.77
2019-01-26T16:08:08.008Z,9.13
2019-01-26T16:10:37.029Z,9.30
2019-01-26T16:13:05.986Z,9.17
2019-01-26T16:15:36.863Z,9.07
2019-01-26T16:18:07.854Z,8.13
2019-01-26T16:20:36.274Z,9.00
2019-01-26T16:23:09.388Z,9.83
2019-01-26T16:25:35.197Z,9.90
2019-01-26T16:28:03.699Z,9.30
2019-01-26T16:30:32.973Z,10.93
2019-01-26T16:33:01.413Z,12.03
2019-01-26T16:35:29.849Z,11.53
2019-01-26T16:37:58.452Z,12.57
2019-01-26T16:40:29.939Z,12.87
2019-01-26T16:42:58.435Z,12.30
2019-01-26T16:45:34.809Z,13.67
2019-01-26T16:48:03.671Z,12.97
2019-01-26T16:50:32.478Z,13.03
2019-01-26T16:53:00.992Z,13.17
2019-01-26T16:55:29.516Z,13.20
2019-01-26T16:57:57.946Z,14.27
2019-01-26T17:00:35.351Z,13.47
2019-01-26T17:03:03.963Z,15.07
2019-01-26T17:05:32.637Z,15.30
2019-01-26T17:08:01.332Z,14.70
2019-01-26T17:10:34.181Z,15.20
2019-01-26T17:13:00.110Z,13.70
2019-01-26T17:15:28.585Z,14.53
2019-01-26T17:17:57.190Z,15.13
2019-01-26T17:20:35.021Z,14.90
2019-01-26T17:23:01.531Z,15.57
2019-01-26T17:25:29.967Z,15.93
2019-01-26T17:27:58.452Z,16.30
2019-01-26T17:30:32.332Z,16.23
2019-01-26T17:33:06.984Z,16.33
2019-01-26T17:35:31.078Z,14.93
2019-01-26T17:37:59.500Z,15.93
2019-01-26T17:40:28.029Z,15.83
2019-01-26T17:42:56.539Z,15.77
2019-01-26T17:45:25.445Z,16.20
2019-01-26T17:47:54.416Z,14.83
2019-01-26T17:50:25.352Z,16.10
2019-01-26T17:52:53.985Z,18.83
2019-01-26T17:55:22.603Z,22.03
2019-01-26T17:57:51.253Z,18.03
2019-01-26T18:03:23.547Z,17.83
2019-01-26T18:05:52.016Z,18.00
2019-01-26T18:08:20.479Z,17.73
2019-01-26T18:10:49.059Z,18.47
2019-01-26T18:13:17.583Z,18.43
2019-01-26T18:15:46.010Z,18.67
2019-01-26T18:18:14.520Z,18.73
2019-01-26T18:20:48.961Z,18.07
2019-01-26T18:23:13.552Z,19.57
2019-01-26T18:25:42.392Z,19.53
2019-01-26T18:28:10.916Z,19.43
2019-01-26T18:30:40.686Z,19.67
2019-01-26T18:33:09.433Z,18.30
2019-01-26T18:35:38.046Z,17.77
2019-01-26T18:38:06.952Z,17.20
2019-01-26T18:40:35.433Z,16.63
2019-01-26T18:43:03.963Z,17.80
2019-01-26T18:45:33.068Z,17.50
2019-01-26T18:48:01.521Z,25.00
2019-01-26T18:50:32.754Z,19.37
2019-01-26T18:53:01.665Z,24.00
2019-01-26T18:55:30.169Z,24.63
2019-01-26T18:57:58.572Z,18.67
2019-01-26T19:00:36.294Z,17.20
2019-01-26T19:03:25.878Z,17.03
2019-01-26T19:05:56.640Z,16.07
2019-01-26T19:08:25.146Z,16.17
2019-01-26T19:10:53.667Z,16.03
2019-01-26T19:13:22.180Z,16.00
2019-01-26T19:15:50.673Z,16.03
2019-01-26T19:18:19.280Z,16.50
2019-01-26T19:20:48.744Z,15.17
2019-01-26T19:23:17.400Z,15.00
2019-01-26T19:25:45.959Z,15.03
2019-01-26T19:28:14.469Z,13.57
2019-01-26T19:30:43.185Z,12.63
2019-01-26T19:33:11.624Z,14.40
2019-01-26T19:35:41.783Z,12.67
2019-01-26T19:38:10.239Z,13.00
2019-01-26T19:40:38.756Z,13.97
2019-01-26T19:43:07.278Z,14.27
2019-01-26T19:45:35.699Z,12.87
2019-01-26T19:48:05.070Z,12.47
2019-01-26T19:50:33.579Z,12.20
2019-01-26T19:53:02.057Z,11.17
2019-01-26T19:55:30.629Z,11.50
2019-01-26T19:57:59.062Z,11.60
2019-01-26T20:00:27.504Z,12.13
2019-01-26T20:02:56.058Z,11.27
2019-01-26T20:05:26.012Z,11.37
2019-01-26T20:07:54.680Z,10.60
2019-01-26T20:10:23.347Z,10.80
2019-01-26T20:12:51.856Z,10.80
2019-01-26T20:15:22.048Z,9.43
2019-01-26T20:17:51.055Z,9.97
2019-01-26T20:20:22.638Z,9.50
2019-01-26T20:22:51.526Z,9.97
2019-01-26T20:25:19.970Z,9.57
2019-01-26T20:27:48.503Z,9.50
2019-01-26T20:30:23.180Z,9.30
2019-01-26T20:32:51.662Z,8.97
2019-01-26T20:35:20.267Z,8.33
2019-01-26T20:37:48.775Z,8.67
2019-01-26T20:40:18.680Z,7.83
2019-01-26T20:42:47.323Z,7.67
2019-01-26T20:45:21.187Z,7.80
2019-01-26T20:47:49.632Z,8.23
2019-01-26T20:50:18.072Z,7.50
2019-01-26T20:52:46.964Z,8.67
2019-01-26T20:55:15.746Z,10.50
2019-01-26T20:57:44.139Z,7.63
2019-01-26T21:00:18.622Z,7.27
2019-01-26T21:02:47.146Z,6.43
2019-01-26T21:05:15.847Z,7.83
2019-01-26T21:07:44.280Z,6.90
2019-01-26T21:10:18.688Z,6.90
2019-01-26T21:12:47.684Z,6.43
2019-01-26T21:15:16.124Z,6.43
2019-01-26T21:17:44.535Z,7.43
2019-01-26T21:20:18.610Z,6.50
2019-01-26T21:22:47.106Z,6.60
2019-01-26T21:25:15.854Z,6.70
2019-01-26T21:27:44.601Z,6.47
2019-01-26T21:30:21.643Z,5.93
2019-01-26T21:32:50.157Z,5.67
2019-01-26T21:35:18.758Z,5.70
2019-01-26T21:37:47.455Z,5.97
2019-01-26T21:40:18.682Z,6.00
2019-01-26T21:42:47.167Z,5.73
2019-01-26T21:45:17.038Z,5.57
2019-01-26T21:47:45.603Z,5.60
2019-01-26T21:50:17.042Z,5.53
2019-01-26T21:52:45.533Z,5.60
2019-01-26T21:55:14.057Z,5.60
2019-01-26T21:57:42.487Z,5.10
2019-01-26T22:00:22.820Z,5.33
2019-01-26T22:02:51.417Z,6.03
2019-01-26T22:05:19.865Z,7.47
2019-01-26T22:07:48.370Z,9.47
2019-01-26T22:10:22.720Z,5.73
2019-01-26T22:12:51.217Z,5.17
2019-01-26T22:15:21.176Z,4.67
2019-01-26T22:17:49.678Z,4.97
2019-01-26T22:20:20.754Z,5.10
2019-01-26T22:22:49.968Z,5.17
2019-01-26T22:25:19.643Z,4.93
2019-01-26T22:27:48.410Z,4.80
2019-01-26T22:30:25.055Z,4.50
2019-01-26T22:32:53.568Z,5.13
2019-01-26T22:35:22.539Z,4.87
2019-01-26T22:37:51.060Z,4.60
2019-01-26T22:40:22.516Z,4.37
2019-01-26T22:42:50.966Z,4.40
2019-01-26T22:45:19.603Z,4.87
2019-01-26T22:47:48.156Z,5.00
2019-01-26T22:50:19.705Z,5.40
2019-01-26T22:52:48.317Z,4.73
2019-01-26T22:55:19.088Z,4.40
2019-01-26T22:57:48.931Z,4.90
2019-01-26T23:00:28.272Z,4.77
2019-01-26T23:02:56.845Z,4.90
2019-01-26T23:05:49.596Z,4.90
2019-01-26T23:08:21.110Z,10.07
2019-01-26T23:11:04.368Z,7.10
2019-01-26T23:13:33.737Z,5.17
2019-01-26T23:16:17.449Z,5.20
2019-01-26T23:18:54.893Z,4.90
2019-01-26T23:21:29.470Z,4.80
2019-01-26T23:24:30.949Z,4.70
2019-01-26T23:27:11.189Z,4.53
2019-01-26T23:29:48.219Z,4.70
2019-01-26T23:32:16.664Z,5.30
2019-01-26T23:34:45.159Z,5.03
2019-01-26T23:37:13.726Z,4.77
2019-01-26T23:39:42.175Z,5.07
2019-01-26T23:42:10.772Z,4.67
2019-01-26T23:44:39.207Z,4.60
2019-01-26T23:47:07.710Z,4.90
2019-01-26T23:49:38.954Z,4.90
2019-01-26T23:52:07.536Z,4.83
2019-01-26T23:54:36.014Z,4.50
2019-01-26T23:57:04.457Z,4.53
2019-01-26T23:59:32.875Z,4.77
